WetterOnline ( https://www.wetteronline.de )

Wetter aktuell Cottbus

Aktuelles Wetter: Cottbus (70m)

6-stündlich | Neueste Meldungen
Ortszeit Temperatur Wetter
Di, 29.11. 1:00 2.1° C bedeckt
Mo, 28.11. 19:00 3.4° C bedeckt
Mo, 28.11. 13:00 6.0° C bedeckt
Mo, 28.11. 7:00 1.6° C bewölkt
Mo, 28.11. 1:00 1.9° C bedeckt
So, 27.11. 19:00 3.9° C fast wolkenlos
So, 27.11. 13:00 8.9° C wolkenlos
So, 27.11. 7:00 3.5° C bedeckt
Ortszeit Temperatur Wetter
Di, 29.11. 4:30 2.5° C bedeckt
Di, 29.11. 4:20 2.5° C bedeckt
Di, 29.11. 4:10 2.4° C bedeckt
Di, 29.11. 4:00 2.4° C wolkig
Di, 29.11. 3:50 2.4° C wolkig
Di, 29.11. 3:40 2.5° C bedeckt
Di, 29.11. 3:30 2.5° C bewölkt
Di, 29.11. 3:00 2.4° C bedeckt
Di, 29.11. 2:30 2.2° C bedeckt
Di, 29.11. 2:00 2.1° C bedeckt
Di, 29.11. 1:30 2.0° C bedeckt
Ortszeit Relative Feuchte Sichtweite
Di, 29.11. 1:00 93% 6 km
Mo, 28.11. 19:00 88% 10 km
Mo, 28.11. 13:00 73% 23 km
Mo, 28.11. 7:00 94% 7 km
Mo, 28.11. 1:00 90% 19 km
So, 27.11. 19:00 87% 20 km
So, 27.11. 13:00 66% 40 km
So, 27.11. 7:00 98% 6 km
Ortszeit Relative Feuchte Sichtweite
Di, 29.11. 4:30 90% 8 km
Di, 29.11. 4:20 90% -
Di, 29.11. 4:10 91% -
Di, 29.11. 4:00 91% 8 km
Di, 29.11. 3:50 91% -
Di, 29.11. 3:40 91% -
Di, 29.11. 3:30 90% 8 km
Di, 29.11. 3:00 91% 8 km
Di, 29.11. 2:30 92% 7 km
Di, 29.11. 2:00 92% 6 km
Di, 29.11. 1:30 92% 6 km
Ortszeit Niederschlagsmenge Niederschlagsart
Di, 29.11. 1:00 0.0 l/m2 in 6 Std. -
Mo, 28.11. 19:00 0.0 l/m2 in 12 Std. -
Mo, 28.11. 13:00 0.0 l/m2 in 6 Std. -
Mo, 28.11. 7:00 0.0 l/m2 in 12 Std. -
Mo, 28.11. 1:00 0.0 l/m2 in 6 Std. -
So, 27.11. 19:00 0.0 l/m2 in 12 Std. -
So, 27.11. 13:00 0.0 l/m2 in 6 Std. -
So, 27.11. 7:00 0.1 l/m2 in 12 Std. -
Ortszeit Niederschlagsmenge Niederschlagsart
Di, 29.11. 4:30 0.0 l/m2 in 1 Std. -
Di, 29.11. 4:20 keine Meldung -
Di, 29.11. 4:10 keine Meldung -
Di, 29.11. 4:00 0.0 l/m2 in 1 Std. -
Di, 29.11. 3:50 keine Meldung -
Di, 29.11. 3:40 keine Meldung -
Di, 29.11. 3:30 0.0 l/m2 in 1 Std. -
Di, 29.11. 3:00 0.0 l/m2 in 1 Std. -
Di, 29.11. 2:30 0.0 l/m2 in 1 Std. -
Di, 29.11. 2:00 0.0 l/m2 in 1 Std. -
Di, 29.11. 1:30 0.0 l/m2 in 1 Std. -
Ortszeit Stärke Spitze Richtung
km/h Bft. km/h Grad Sektor
Di, 29.11. 1:00 7 2 18 90° O
Mo, 28.11. 19:00 7 2 22 90° O
Mo, 28.11. 13:00 13 3 26 120° SO
Mo, 28.11. 7:00 13 3 22 100° O
Mo, 28.11. 1:00 11 2 22 100° O
So, 27.11. 19:00 9 2 17 110° O
So, 27.11. 13:00 7 2 11 150° SO
So, 27.11. 7:00 4 1 14 190° S
Ortszeit Stärke Spitze Richtung
km/h Bft. km/h Grad Sektor
Di, 29.11. 4:30 7 2 11 80° O
Di, 29.11. 4:20 7 2 - 80° O
Di, 29.11. 4:10 6 1 - 80° O
Di, 29.11. 4:00 7 2 14 70° O
Di, 29.11. 3:50 7 2 - 70° O
Di, 29.11. 3:40 7 2 - 80° O
Di, 29.11. 3:30 7 2 14 100° O
Di, 29.11. 3:00 7 2 15 90° O
Di, 29.11. 2:30 7 2 14 80° O
Di, 29.11. 2:00 7 2 15 80° O
Di, 29.11. 1:30 9 2 13 80° O
Ortszeit Untergrenze Bedeckung Gattung
total tief tief mittel hoch
Di, 29.11. 1:00 2400 m 8/8 8/8 - - -
Mo, 28.11. 19:00 3300 m 8/8 8/8 - - -
Mo, 28.11. 13:00 3300 m 8/8 8/8 - - -
Mo, 28.11. 7:00 90 m 8/8 6/8 - - -
Mo, 28.11. 1:00 5100 m 8/8 8/8 - - -
So, 27.11. 19:00 8400 m 2/8 0/8 - - -
So, 27.11. 13:00 - 0/8 0/8 - - -
So, 27.11. 7:00 1500 m 8/8 8/8 - - -
Ortszeit Bedeckungsgrad in Achtel und Wolkenuntergrenze
Di, 29.11. 4:30 6(1800m) 8(2700m) 8(3600m)
Di, 29.11. 4:20 6(1800m) 8(2700m) 8(3600m)
Di, 29.11. 4:10 8
Di, 29.11. 4:00 2(1800m) 8(3900m) 8(4800m)
Di, 29.11. 3:50 2(1800m) 8(3900m) 8(4800m)
Di, 29.11. 3:40 8
Di, 29.11. 3:30 7(1800m) 8(3000m) 8(3900m)
Di, 29.11. 3:00 7(1800m) 8(2700m)
Di, 29.11. 2:30 5(1800m) 8(2700m)
Di, 29.11. 2:00 4(1800m) 8(2700m) 8(3900m)
Di, 29.11. 1:30 4(2100m) 8(2700m) 8(3900m)
Ortszeit Luftdruck NN (hPa) Tendenz (hPa in 3 Std.)
Di, 29.11. 1:00 1017 0,0
Mo, 28.11. 19:00 1017 + 0,1
Mo, 28.11. 13:00 1017 - 1,1
Mo, 28.11. 7:00 1019 - 1,2
Mo, 28.11. 1:00 1022 - 1,2
So, 27.11. 19:00 1025 - 1,2
So, 27.11. 13:00 1028 - 1,3
So, 27.11. 7:00 1030 + 0,4
Ortszeit Luftdruck NN (hPa) Tendenz (hPa in 3 Std.)
Di, 29.11. 4:30 1017 + 0,2
Di, 29.11. 4:20 1017 keine Meldung
Di, 29.11. 4:10 1017 keine Meldung
Di, 29.11. 4:00 1017 0,0
Di, 29.11. 3:50 1017 keine Meldung
Di, 29.11. 3:40 1017 keine Meldung
Di, 29.11. 3:30 1017 0,0
Di, 29.11. 3:00 1017 - 0,1
Di, 29.11. 2:30 1017 0,0
Di, 29.11. 2:00 1017 0,0
Di, 29.11. 1:30 1017 0,0
Ortszeit Schneehöhe (cm)
Di, 29.11. 1:00 0
Mo, 28.11. 19:00 0
Mo, 28.11. 13:00 0
Mo, 28.11. 7:00 0
Mo, 28.11. 1:00 0
So, 27.11. 19:00 0
So, 27.11. 13:00 0
So, 27.11. 7:00 0
Ortszeit Schneehöhe (cm)
Di, 29.11. 4:30 0
Di, 29.11. 4:20 0
Di, 29.11. 4:10 0
Di, 29.11. 4:00 0
Di, 29.11. 3:50 0
Di, 29.11. 3:40 0
Di, 29.11. 3:30 0
Di, 29.11. 3:00 0
Di, 29.11. 2:30 0
Di, 29.11. 2:00 0
Di, 29.11. 1:30 0
Link zu dieser Seite / Seite empfehlen

Das Wetter in ...